sensor_id;sensor_type;location;lat;lon;timestamp;P1;durP1;ratioP1;P2;durP2;ratioP2
76608;SDS011;65928;53.936;27.540;2022-12-18T00:02:03;16.00;;;8.23;;
76608;SDS011;65928;53.936;27.540;2022-12-18T00:04:29;13.30;;;7.38;;
76608;SDS011;65928;53.936;27.540;2022-12-18T00:06:55;9.98;;;5.88;;
76608;SDS011;65928;53.936;27.540;2022-12-18T00:09:20;12.35;;;7.15;;
76608;SDS011;65928;53.936;27.540;2022-12-18T00:11:46;12.07;;;6.88;;
76608;SDS011;65928;53.936;27.540;2022-12-18T00:14:12;12.82;;;6.60;;
76608;SDS011;65928;53.936;27.540;2022-12-18T00:16:38;17.20;;;7.80;;
76608;SDS011;65928;53.936;27.540;2022-12-18T00:19:04;13.50;;;7.90;;
76608;SDS011;65928;53.936;27.540;2022-12-18T00:21:30;13.43;;;6.95;;
76608;SDS011;65928;53.936;27.540;2022-12-18T00:23:57;12.55;;;6.68;;
76608;SDS011;65928;53.936;27.540;2022-12-18T00:26:28;18.25;;;9.32;;
76608;SDS011;65928;53.936;27.540;2022-12-18T00:28:57;12.43;;;7.38;;
76608;SDS011;65928;53.936;27.540;2022-12-18T00:31:24;13.07;;;7.20;;
76608;SDS011;65928;53.936;27.540;2022-12-18T00:33:51;14.45;;;6.60;;
76608;SDS011;65928;53.936;27.540;2022-12-18T00:36:18;11.68;;;6.15;;
76608;SDS011;65928;53.936;27.540;2022-12-18T00:38:46;12.50;;;6.90;;
76608;SDS011;65928;53.936;27.540;2022-12-18T00:41:13;14.57;;;8.20;;
76608;SDS011;65928;53.936;27.540;2022-12-18T00:44:01;14.93;;;8.18;;
76608;SDS011;65928;53.936;27.540;2022-12-18T00:46:26;14.30;;;6.47;;
76608;SDS011;65928;53.936;27.540;2022-12-18T00:48:52;13.45;;;7.43;;
76608;SDS011;65928;53.936;27.540;2022-12-18T00:51:17;16.40;;;7.47;;
76608;SDS011;65928;53.936;27.540;2022-12-18T00:53:43;15.02;;;7.63;;
76608;SDS011;65928;53.936;27.540;2022-12-18T00:56:08;15.45;;;8.02;;
76608;SDS011;65928;53.936;27.540;2022-12-18T00:58:39;16.52;;;8.65;;
76608;SDS011;65928;53.936;27.540;2022-12-18T01:01:05;11.63;;;6.85;;
76608;SDS011;65928;53.936;27.540;2022-12-18T01:03:31;11.55;;;7.38;;
76608;SDS011;65928;53.936;27.540;2022-12-18T01:05:56;13.95;;;7.43;;
76608;SDS011;65928;53.936;27.540;2022-12-18T01:08:22;15.85;;;8.00;;
76608;SDS011;65928;53.936;27.540;2022-12-18T01:10:47;13.75;;;6.65;;
76608;SDS011;65928;53.936;27.540;2022-12-18T01:15:47;12.77;;;6.25;;
76608;SDS011;65928;53.936;27.540;2022-12-18T01:18:14;13.32;;;6.63;;
76608;SDS011;65928;53.936;27.540;2022-12-18T01:20:39;10.35;;;6.35;;
76608;SDS011;65928;53.936;27.540;2022-12-18T01:23:05;10.02;;;5.93;;
76608;SDS011;65928;53.936;27.540;2022-12-18T01:25:30;9.18;;;6.38;;
76608;SDS011;65928;53.936;27.540;2022-12-18T01:27:56;13.98;;;6.70;;
76608;SDS011;65928;53.936;27.540;2022-12-18T01:30:21;9.82;;;5.40;;
76608;SDS011;65928;53.936;27.540;2022-12-18T01:32:47;13.05;;;6.65;;
76608;SDS011;65928;53.936;27.540;2022-12-18T01:35:13;11.82;;;7.40;;
76608;SDS011;65928;53.936;27.540;2022-12-18T01:37:38;14.60;;;8.73;;
76608;SDS011;65928;53.936;27.540;2022-12-18T01:40:04;11.82;;;6.30;;
76608;SDS011;65928;53.936;27.540;2022-12-18T01:42:31;11.88;;;6.93;;
76608;SDS011;65928;53.936;27.540;2022-12-18T01:44:58;20.23;;;7.90;;
76608;SDS011;65928;53.936;27.540;2022-12-18T01:50:17;14.52;;;7.80;;
76608;SDS011;65928;53.936;27.540;2022-12-18T01:52:44;13.38;;;7.35;;
76608;SDS011;65928;53.936;27.540;2022-12-18T01:55:13;14.10;;;7.28;;
76608;SDS011;65928;53.936;27.540;2022-12-18T01:57:41;12.63;;;7.20;;
76608;SDS011;65928;53.936;27.540;2022-12-18T02:00:11;8.25;;;5.53;;
76608;SDS011;65928;53.936;27.540;2022-12-18T02:02:43;12.48;;;6.00;;
76608;SDS011;65928;53.936;27.540;2022-12-18T02:05:10;12.18;;;6.93;;
76608;SDS011;65928;53.936;27.540;2022-12-18T02:10:15;12.70;;;6.82;;
76608;SDS011;65928;53.936;27.540;2022-12-18T02:18:19;10.43;;;6.28;;
76608;SDS011;65928;53.936;27.540;2022-12-18T02:20:54;9.07;;;5.38;;
76608;SDS011;65928;53.936;27.540;2022-12-18T02:26:22;11.32;;;6.00;;
76608;SDS011;65928;53.936;27.540;2022-12-18T02:29:13;15.45;;;5.95;;
76608;SDS011;65928;53.936;27.540;2022-12-18T02:31:43;12.23;;;5.55;;
76608;SDS011;65928;53.936;27.540;2022-12-18T02:34:14;12.65;;;6.20;;
76608;SDS011;65928;53.936;27.540;2022-12-18T02:36:44;11.02;;;5.30;;
76608;SDS011;65928;53.936;27.540;2022-12-18T02:39:13;12.05;;;5.57;;
76608;SDS011;65928;53.936;27.540;2022-12-18T02:41:40;13.20;;;6.60;;
76608;SDS011;65928;53.936;27.540;2022-12-18T02:44:08;9.40;;;5.55;;
76608;SDS011;65928;53.936;27.540;2022-12-18T02:46:45;10.90;;;6.40;;
76608;SDS011;65928;53.936;27.540;2022-12-18T02:51:56;9.55;;;5.93;;
76608;SDS011;65928;53.936;27.540;2022-12-18T03:05:05;8.95;;;4.40;;
76608;SDS011;65928;53.936;27.540;2022-12-18T03:07:40;7.15;;;4.90;;
76608;SDS011;65928;53.936;27.540;2022-12-18T03:10:27;14.13;;;6.90;;
76608;SDS011;65928;53.936;27.540;2022-12-18T03:13:02;10.18;;;5.22;;
76608;SDS011;65928;53.936;27.540;2022-12-18T03:15:35;11.38;;;6.45;;
76608;SDS011;65928;53.936;27.540;2022-12-18T03:18:10;9.75;;;4.72;;
76608;SDS011;65928;53.936;27.540;2022-12-18T03:20:41;8.63;;;5.05;;
76608;SDS011;65928;53.936;27.540;2022-12-18T03:23:11;9.55;;;5.43;;
76608;SDS011;65928;53.936;27.540;2022-12-18T03:25:41;5.82;;;3.63;;
76608;SDS011;65928;53.936;27.540;2022-12-18T03:28:13;7.93;;;4.07;;
76608;SDS011;65928;53.936;27.540;2022-12-18T03:33:51;8.35;;;4.90;;
76608;SDS011;65928;53.936;27.540;2022-12-18T03:36:32;7.43;;;4.18;;
76608;SDS011;65928;53.936;27.540;2022-12-18T03:38:58;7.30;;;5.15;;
76608;SDS011;65928;53.936;27.540;2022-12-18T03:44:12;12.80;;;5.97;;
76608;SDS011;65928;53.936;27.540;2022-12-18T03:49:44;7.70;;;3.90;;
76608;SDS011;65928;53.936;27.540;2022-12-18T03:52:17;11.88;;;5.25;;
76608;SDS011;65928;53.936;27.540;2022-12-18T03:54:49;10.13;;;4.22;;
76608;SDS011;65928;53.936;27.540;2022-12-18T03:57:19;6.55;;;3.10;;
76608;SDS011;65928;53.936;27.540;2022-12-18T03:59:49;7.40;;;3.92;;
76608;SDS011;65928;53.936;27.540;2022-12-18T04:02:19;9.32;;;3.55;;
76608;SDS011;65928;53.936;27.540;2022-12-18T04:04:47;7.80;;;4.20;;
76608;SDS011;65928;53.936;27.540;2022-12-18T04:07:16;7.53;;;3.13;;
76608;SDS011;65928;53.936;27.540;2022-12-18T04:09:42;8.60;;;4.07;;
76608;SDS011;65928;53.936;27.540;2022-12-18T04:12:10;7.10;;;3.45;;
76608;SDS011;65928;53.936;27.540;2022-12-18T04:14:35;8.20;;;3.85;;
76608;SDS011;65928;53.936;27.540;2022-12-18T04:17:01;5.72;;;3.33;;
76608;SDS011;65928;53.936;27.540;2022-12-18T04:19:28;9.38;;;4.07;;
76608;SDS011;65928;53.936;27.540;2022-12-18T04:21:53;7.03;;;3.75;;
76608;SDS011;65928;53.936;27.540;2022-12-18T04:24:19;7.85;;;4.05;;
76608;SDS011;65928;53.936;27.540;2022-12-18T04:26:45;6.20;;;3.47;;
76608;SDS011;65928;53.936;27.540;2022-12-18T04:29:10;7.35;;;3.88;;
76608;SDS011;65928;53.936;27.540;2022-12-18T04:31:36;8.23;;;4.00;;
76608;SDS011;65928;53.936;27.540;2022-12-18T04:34:02;8.15;;;3.92;;
76608;SDS011;65928;53.936;27.540;2022-12-18T04:36:28;7.53;;;5.13;;
76608;SDS011;65928;53.936;27.540;2022-12-18T04:38:53;7.80;;;4.00;;
76608;SDS011;65928;53.936;27.540;2022-12-18T04:41:19;8.60;;;3.97;;
76608;SDS011;65928;53.936;27.540;2022-12-18T04:43:44;9.02;;;4.25;;
76608;SDS011;65928;53.936;27.540;2022-12-18T04:46:10;8.30;;;4.82;;
76608;SDS011;65928;53.936;27.540;2022-12-18T04:48:35;6.65;;;3.53;;
76608;SDS011;65928;53.936;27.540;2022-12-18T04:51:04;6.47;;;4.03;;
76608;SDS011;65928;53.936;27.540;2022-12-18T04:53:30;8.90;;;4.32;;
76608;SDS011;65928;53.936;27.540;2022-12-18T04:56:05;7.50;;;4.20;;
76608;SDS011;65928;53.936;27.540;2022-12-18T05:01:05;8.23;;;3.72;;
76608;SDS011;65928;53.936;27.540;2022-12-18T05:03:32;7.88;;;3.47;;
76608;SDS011;65928;53.936;27.540;2022-12-18T05:05:59;6.20;;;3.25;;
76608;SDS011;65928;53.936;27.540;2022-12-18T05:08:25;6.57;;;4.07;;
76608;SDS011;65928;53.936;27.540;2022-12-18T05:10:58;7.50;;;4.18;;
76608;SDS011;65928;53.936;27.540;2022-12-18T05:13:34;8.80;;;3.72;;
76608;SDS011;65928;53.936;27.540;2022-12-18T05:16:00;5.88;;;3.08;;
76608;SDS011;65928;53.936;27.540;2022-12-18T05:18:27;6.82;;;3.55;;
76608;SDS011;65928;53.936;27.540;2022-12-18T05:20:52;5.88;;;3.72;;
76608;SDS011;65928;53.936;27.540;2022-12-18T05:23:19;7.38;;;3.90;;
76608;SDS011;65928;53.936;27.540;2022-12-18T05:26:04;7.43;;;4.13;;
76608;SDS011;65928;53.936;27.540;2022-12-18T05:28:31;9.43;;;4.07;;
76608;SDS011;65928;53.936;27.540;2022-12-18T05:30:59;10.27;;;4.32;;
76608;SDS011;65928;53.936;27.540;2022-12-18T05:33:26;8.38;;;4.88;;
76608;SDS011;65928;53.936;27.540;2022-12-18T05:35:56;13.80;;;5.05;;
76608;SDS011;65928;53.936;27.540;2022-12-18T05:38:23;8.50;;;3.53;;
76608;SDS011;65928;53.936;27.540;2022-12-18T05:40:51;7.38;;;4.70;;
76608;SDS011;65928;53.936;27.540;2022-12-18T05:43:17;8.43;;;4.22;;
76608;SDS011;65928;53.936;27.540;2022-12-18T05:45:44;7.05;;;3.75;;
76608;SDS011;65928;53.936;27.540;2022-12-18T05:48:13;7.50;;;3.78;;
76608;SDS011;65928;53.936;27.540;2022-12-18T05:50:40;12.20;;;5.07;;
76608;SDS011;65928;53.936;27.540;2022-12-18T05:53:08;8.40;;;5.03;;
76608;SDS011;65928;53.936;27.540;2022-12-18T05:55:34;7.20;;;4.07;;
76608;SDS011;65928;53.936;27.540;2022-12-18T05:58:02;6.38;;;3.60;;
76608;SDS011;65928;53.936;27.540;2022-12-18T06:00:29;7.78;;;4.10;;
76608;SDS011;65928;53.936;27.540;2022-12-18T06:02:55;6.15;;;3.08;;
76608;SDS011;65928;53.936;27.540;2022-12-18T06:05:21;6.15;;;3.60;;
76608;SDS011;65928;53.936;27.540;2022-12-18T06:07:46;8.32;;;4.65;;
76608;SDS011;65928;53.936;27.540;2022-12-18T06:10:12;6.15;;;3.45;;
76608;SDS011;65928;53.936;27.540;2022-12-18T06:12:37;5.43;;;3.40;;
76608;SDS011;65928;53.936;27.540;2022-12-18T06:15:03;7.40;;;3.60;;
76608;SDS011;65928;53.936;27.540;2022-12-18T06:17:32;6.63;;;3.25;;
76608;SDS011;65928;53.936;27.540;2022-12-18T06:19:58;7.70;;;3.90;;
76608;SDS011;65928;53.936;27.540;2022-12-18T06:22:24;8.63;;;4.55;;
76608;SDS011;65928;53.936;27.540;2022-12-18T06:24:50;7.90;;;4.30;;
76608;SDS011;65928;53.936;27.540;2022-12-18T06:27:15;6.00;;;3.50;;
76608;SDS011;65928;53.936;27.540;2022-12-18T06:29:41;6.82;;;3.53;;
76608;SDS011;65928;53.936;27.540;2022-12-18T06:32:06;7.88;;;4.07;;
76608;SDS011;65928;53.936;27.540;2022-12-18T06:34:32;9.30;;;5.55;;
76608;SDS011;65928;53.936;27.540;2022-12-18T06:36:58;7.00;;;3.33;;
76608;SDS011;65928;53.936;27.540;2022-12-18T06:39:30;10.65;;;5.22;;
76608;SDS011;65928;53.936;27.540;2022-12-18T06:41:55;12.38;;;5.22;;
76608;SDS011;65928;53.936;27.540;2022-12-18T06:44:21;8.75;;;4.25;;
76608;SDS011;65928;53.936;27.540;2022-12-18T06:46:46;8.02;;;4.57;;
76608;SDS011;65928;53.936;27.540;2022-12-18T06:49:12;7.60;;;3.53;;
76608;SDS011;65928;53.936;27.540;2022-12-18T06:51:37;10.48;;;5.78;;
76608;SDS011;65928;53.936;27.540;2022-12-18T06:54:03;11.52;;;6.55;;
76608;SDS011;65928;53.936;27.540;2022-12-18T06:56:29;5.78;;;3.40;;
76608;SDS011;65928;53.936;27.540;2022-12-18T06:58:54;7.68;;;4.88;;
76608;SDS011;65928;53.936;27.540;2022-12-18T07:01:20;7.45;;;4.93;;
76608;SDS011;65928;53.936;27.540;2022-12-18T07:03:46;9.43;;;4.68;;
76608;SDS011;65928;53.936;27.540;2022-12-18T07:06:15;8.35;;;4.25;;
76608;SDS011;65928;53.936;27.540;2022-12-18T07:12:07;8.38;;;4.25;;
76608;SDS011;65928;53.936;27.540;2022-12-18T07:14:33;11.48;;;5.80;;
76608;SDS011;65928;53.936;27.540;2022-12-18T07:16:58;9.07;;;5.80;;
76608;SDS011;65928;53.936;27.540;2022-12-18T07:19:24;8.50;;;4.47;;
76608;SDS011;65928;53.936;27.540;2022-12-18T07:21:50;6.70;;;4.05;;
76608;SDS011;65928;53.936;27.540;2022-12-18T07:27:01;8.05;;;4.55;;
76608;SDS011;65928;53.936;27.540;2022-12-18T07:29:27;11.35;;;5.38;;
76608;SDS011;65928;53.936;27.540;2022-12-18T07:35:08;9.30;;;5.47;;
76608;SDS011;65928;53.936;27.540;2022-12-18T07:37:33;10.60;;;5.35;;
76608;SDS011;65928;53.936;27.540;2022-12-18T07:39:59;9.90;;;5.05;;
76608;SDS011;65928;53.936;27.540;2022-12-18T07:42:24;10.43;;;5.65;;
76608;SDS011;65928;53.936;27.540;2022-12-18T07:44:56;7.93;;;4.63;;
76608;SDS011;65928;53.936;27.540;2022-12-18T07:47:22;8.77;;;4.90;;
76608;SDS011;65928;53.936;27.540;2022-12-18T07:49:47;12.00;;;6.63;;
76608;SDS011;65928;53.936;27.540;2022-12-18T07:52:13;9.80;;;5.30;;
76608;SDS011;65928;53.936;27.540;2022-12-18T07:54:38;8.07;;;4.38;;
76608;SDS011;65928;53.936;27.540;2022-12-18T07:57:05;9.88;;;5.47;;
76608;SDS011;65928;53.936;27.540;2022-12-18T07:59:31;6.88;;;4.65;;
76608;SDS011;65928;53.936;27.540;2022-12-18T08:01:56;10.35;;;5.80;;
76608;SDS011;65928;53.936;27.540;2022-12-18T08:04:22;8.93;;;5.00;;
76608;SDS011;65928;53.936;27.540;2022-12-18T08:10:09;11.45;;;5.30;;
76608;SDS011;65928;53.936;27.540;2022-12-18T08:12:34;10.05;;;6.10;;
76608;SDS011;65928;53.936;27.540;2022-12-18T08:15:00;10.75;;;5.82;;
76608;SDS011;65928;53.936;27.540;2022-12-18T08:20:28;12.05;;;6.85;;
76608;SDS011;65928;53.936;27.540;2022-12-18T08:22:53;12.98;;;7.03;;
76608;SDS011;65928;53.936;27.540;2022-12-18T08:25:19;12.82;;;6.70;;
76608;SDS011;65928;53.936;27.540;2022-12-18T08:27:45;11.68;;;5.57;;
76608;SDS011;65928;53.936;27.540;2022-12-18T08:30:10;16.35;;;7.35;;
76608;SDS011;65928;53.936;27.540;2022-12-18T08:32:36;11.73;;;6.72;;
76608;SDS011;65928;53.936;27.540;2022-12-18T08:35:02;13.82;;;7.70;;
76608;SDS011;65928;53.936;27.540;2022-12-18T08:37:27;11.98;;;5.95;;
76608;SDS011;65928;53.936;27.540;2022-12-18T08:39:53;12.77;;;5.78;;
76608;SDS011;65928;53.936;27.540;2022-12-18T08:42:18;7.72;;;4.82;;
76608;SDS011;65928;53.936;27.540;2022-12-18T08:45:03;7.72;;;5.10;;
76608;SDS011;65928;53.936;27.540;2022-12-18T08:47:29;9.00;;;5.50;;
76608;SDS011;65928;53.936;27.540;2022-12-18T08:49:54;8.85;;;5.60;;
76608;SDS011;65928;53.936;27.540;2022-12-18T08:52:20;12.10;;;7.15;;
76608;SDS011;65928;53.936;27.540;2022-12-18T08:54:45;12.93;;;6.43;;
76608;SDS011;65928;53.936;27.540;2022-12-18T08:57:11;12.50;;;5.45;;
76608;SDS011;65928;53.936;27.540;2022-12-18T08:59:36;10.52;;;6.18;;
76608;SDS011;65928;53.936;27.540;2022-12-18T09:02:02;10.95;;;7.25;;
76608;SDS011;65928;53.936;27.540;2022-12-18T09:04:28;11.77;;;5.93;;
76608;SDS011;65928;53.936;27.540;2022-12-18T09:06:56;13.30;;;5.47;;
76608;SDS011;65928;53.936;27.540;2022-12-18T09:15:29;12.50;;;6.88;;
76608;SDS011;65928;53.936;27.540;2022-12-18T09:17:54;15.82;;;7.70;;
76608;SDS011;65928;53.936;27.540;2022-12-18T09:20:20;11.38;;;6.43;;
76608;SDS011;65928;53.936;27.540;2022-12-18T09:22:45;9.40;;;5.25;;
76608;SDS011;65928;53.936;27.540;2022-12-18T09:25:11;11.27;;;5.70;;
76608;SDS011;65928;53.936;27.540;2022-12-18T09:27:36;11.63;;;5.80;;
76608;SDS011;65928;53.936;27.540;2022-12-18T09:30:02;10.88;;;5.22;;
76608;SDS011;65928;53.936;27.540;2022-12-18T09:32:28;12.55;;;6.55;;
76608;SDS011;65928;53.936;27.540;2022-12-18T09:34:53;11.48;;;5.18;;
76608;SDS011;65928;53.936;27.540;2022-12-18T09:37:19;14.57;;;8.52;;
76608;SDS011;65928;53.936;27.540;2022-12-18T09:39:44;11.30;;;5.68;;
76608;SDS011;65928;53.936;27.540;2022-12-18T09:42:43;11.00;;;6.95;;
76608;SDS011;65928;53.936;27.540;2022-12-18T09:45:02;9.40;;;4.57;;
76608;SDS011;65928;53.936;27.540;2022-12-18T09:47:28;10.32;;;5.57;;
76608;SDS011;65928;53.936;27.540;2022-12-18T09:50:01;11.45;;;5.35;;
76608;SDS011;65928;53.936;27.540;2022-12-18T09:52:32;7.18;;;5.00;;
76608;SDS011;65928;53.936;27.540;2022-12-18T09:55:08;8.32;;;5.03;;
76608;SDS011;65928;53.936;27.540;2022-12-18T09:57:57;6.47;;;3.95;;
76608;SDS011;65928;53.936;27.540;2022-12-18T10:00:28;9.70;;;5.47;;
76608;SDS011;65928;53.936;27.540;2022-12-18T10:03:08;12.38;;;6.45;;
76608;SDS011;65928;53.936;27.540;2022-12-18T10:05:42;10.77;;;6.07;;
76608;SDS011;65928;53.936;27.540;2022-12-18T10:11:37;8.77;;;6.05;;
76608;SDS011;65928;53.936;27.540;2022-12-18T10:14:26;9.32;;;5.65;;
76608;SDS011;65928;53.936;27.540;2022-12-18T10:22:19;9.45;;;5.07;;
76608;SDS011;65928;53.936;27.540;2022-12-18T10:24:59;8.40;;;4.80;;
76608;SDS011;65928;53.936;27.540;2022-12-18T10:27:26;9.10;;;5.63;;
76608;SDS011;65928;53.936;27.540;2022-12-18T10:29:52;8.75;;;5.03;;
76608;SDS011;65928;53.936;27.540;2022-12-18T10:32:23;11.43;;;5.55;;
76608;SDS011;65928;53.936;27.540;2022-12-18T10:34:50;9.07;;;4.72;;
76608;SDS011;65928;53.936;27.540;2022-12-18T10:37:19;12.02;;;5.40;;
76608;SDS011;65928;53.936;27.540;2022-12-18T10:39:47;10.65;;;5.43;;
76608;SDS011;65928;53.936;27.540;2022-12-18T10:42:40;11.27;;;5.00;;
76608;SDS011;65928;53.936;27.540;2022-12-18T10:45:14;11.55;;;7.07;;
76608;SDS011;65928;53.936;27.540;2022-12-18T10:47:47;14.30;;;7.78;;
76608;SDS011;65928;53.936;27.540;2022-12-18T10:50:33;15.63;;;8.07;;
76608;SDS011;65928;53.936;27.540;2022-12-18T10:53:03;13.80;;;6.70;;
76608;SDS011;65928;53.936;27.540;2022-12-18T10:55:38;15.02;;;8.60;;
76608;SDS011;65928;53.936;27.540;2022-12-18T11:04:08;11.38;;;5.97;;
76608;SDS011;65928;53.936;27.540;2022-12-18T11:06:35;12.02;;;7.25;;
76608;SDS011;65928;53.936;27.540;2022-12-18T11:09:19;13.55;;;7.82;;
76608;SDS011;65928;53.936;27.540;2022-12-18T11:15:15;18.83;;;9.18;;
76608;SDS011;65928;53.936;27.540;2022-12-18T11:17:44;15.38;;;8.63;;
76608;SDS011;65928;53.936;27.540;2022-12-18T11:20:26;15.88;;;9.18;;
76608;SDS011;65928;53.936;27.540;2022-12-18T11:22:56;16.00;;;8.55;;
76608;SDS011;65928;53.936;27.540;2022-12-18T11:25:24;19.00;;;8.43;;
76608;SDS011;65928;53.936;27.540;2022-12-18T11:27:56;15.90;;;8.15;;
76608;SDS011;65928;53.936;27.540;2022-12-18T11:30:26;18.75;;;8.88;;
76608;SDS011;65928;53.936;27.540;2022-12-18T11:33:05;20.67;;;11.20;;
76608;SDS011;65928;53.936;27.540;2022-12-18T11:35:54;21.08;;;11.18;;
76608;SDS011;65928;53.936;27.540;2022-12-18T11:38:34;16.63;;;10.80;;
76608;SDS011;65928;53.936;27.540;2022-12-18T11:41:07;25.58;;;13.18;;
76608;SDS011;65928;53.936;27.540;2022-12-18T11:44:15;26.13;;;12.57;;
76608;SDS011;65928;53.936;27.540;2022-12-18T11:47:01;20.27;;;12.27;;
76608;SDS011;65928;53.936;27.540;2022-12-18T11:49:34;22.38;;;10.57;;
76608;SDS011;65928;53.936;27.540;2022-12-18T12:16:57;21.95;;;11.77;;
76608;SDS011;65928;53.936;27.540;2022-12-18T12:22:31;24.05;;;12.73;;
76608;SDS011;65928;53.936;27.540;2022-12-18T12:25:13;27.23;;;13.30;;
76608;SDS011;65928;53.936;27.540;2022-12-18T12:27:57;20.98;;;10.73;;
76608;SDS011;65928;53.936;27.540;2022-12-18T12:33:46;11.75;;;6.95;;
76608;SDS011;65928;53.936;27.540;2022-12-18T12:38:47;13.52;;;5.88;;
76608;SDS011;65928;53.936;27.540;2022-12-18T12:41:20;12.13;;;6.70;;
76608;SDS011;65928;53.936;27.540;2022-12-18T12:44:20;10.30;;;5.35;;
76608;SDS011;65928;53.936;27.540;2022-12-18T12:46:50;11.45;;;6.10;;
76608;SDS011;65928;53.936;27.540;2022-12-18T12:49:24;11.70;;;5.85;;
76608;SDS011;65928;53.936;27.540;2022-12-18T12:54:22;8.10;;;5.00;;
76608;SDS011;65928;53.936;27.540;2022-12-18T12:59:31;11.43;;;6.40;;
76608;SDS011;65928;53.936;27.540;2022-12-18T13:08:03;8.57;;;5.30;;
76608;SDS011;65928;53.936;27.540;2022-12-18T13:10:37;12.57;;;7.07;;
76608;SDS011;65928;53.936;27.540;2022-12-18T13:13:09;10.93;;;6.25;;
76608;SDS011;65928;53.936;27.540;2022-12-18T13:15:41;9.80;;;6.45;;
76608;SDS011;65928;53.936;27.540;2022-12-18T13:20:37;9.45;;;5.75;;
76608;SDS011;65928;53.936;27.540;2022-12-18T13:29:12;9.98;;;5.57;;
76608;SDS011;65928;53.936;27.540;2022-12-18T13:32:23;10.65;;;6.10;;
76608;SDS011;65928;53.936;27.540;2022-12-18T13:37:44;12.20;;;7.35;;
76608;SDS011;65928;53.936;27.540;2022-12-18T13:43:20;21.48;;;11.02;;
76608;SDS011;65928;53.936;27.540;2022-12-18T13:45:50;14.93;;;7.72;;
76608;SDS011;65928;53.936;27.540;2022-12-18T13:48:26;14.60;;;8.18;;
76608;SDS011;65928;53.936;27.540;2022-12-18T13:57:00;13.15;;;7.25;;
76608;SDS011;65928;53.936;27.540;2022-12-18T13:59:34;16.38;;;8.88;;
76608;SDS011;65928;53.936;27.540;2022-12-18T14:07:53;17.98;;;8.65;;
76608;SDS011;65928;53.936;27.540;2022-12-18T14:10:19;10.32;;;5.75;;
76608;SDS011;65928;53.936;27.540;2022-12-18T14:12:49;8.65;;;5.45;;
76608;SDS011;65928;53.936;27.540;2022-12-18T14:21:02;11.05;;;6.50;;
76608;SDS011;65928;53.936;27.540;2022-12-18T14:26:39;11.05;;;5.63;;
76608;SDS011;65928;53.936;27.540;2022-12-18T14:34:29;12.43;;;6.32;;
76608;SDS011;65928;53.936;27.540;2022-12-18T14:36:55;11.65;;;6.22;;
76608;SDS011;65928;53.936;27.540;2022-12-18T14:39:21;13.43;;;6.53;;
76608;SDS011;65928;53.936;27.540;2022-12-18T14:41:48;11.40;;;5.32;;
76608;SDS011;65928;53.936;27.540;2022-12-18T14:44:14;11.45;;;6.13;;
76608;SDS011;65928;53.936;27.540;2022-12-18T14:46:44;9.65;;;4.95;;
76608;SDS011;65928;53.936;27.540;2022-12-18T14:49:30;11.93;;;5.68;;
76608;SDS011;65928;53.936;27.540;2022-12-18T14:55:18;12.18;;;6.25;;
76608;SDS011;65928;53.936;27.540;2022-12-18T14:57:45;11.15;;;5.85;;
76608;SDS011;65928;53.936;27.540;2022-12-18T15:00:21;13.10;;;6.90;;
76608;SDS011;65928;53.936;27.540;2022-12-18T15:02:50;11.13;;;5.32;;
76608;SDS011;65928;53.936;27.540;2022-12-18T15:05:27;9.35;;;6.07;;
76608;SDS011;65928;53.936;27.540;2022-12-18T15:11:02;10.25;;;5.90;;
76608;SDS011;65928;53.936;27.540;2022-12-18T15:13:28;12.88;;;6.40;;
76608;SDS011;65928;53.936;27.540;2022-12-18T15:15:55;12.35;;;5.82;;
76608;SDS011;65928;53.936;27.540;2022-12-18T15:18:32;13.50;;;7.03;;
76608;SDS011;65928;53.936;27.540;2022-12-18T15:21:07;9.70;;;7.00;;
76608;SDS011;65928;53.936;27.540;2022-12-18T15:23:45;12.68;;;8.38;;
76608;SDS011;65928;53.936;27.540;2022-12-18T15:26:19;14.82;;;8.63;;
76608;SDS011;65928;53.936;27.540;2022-12-18T15:28:50;16.15;;;9.05;;
76608;SDS011;65928;53.936;27.540;2022-12-18T15:31:24;14.85;;;7.60;;
76608;SDS011;65928;53.936;27.540;2022-12-18T15:37:15;16.48;;;9.88;;
76608;SDS011;65928;53.936;27.540;2022-12-18T15:39:41;20.73;;;12.40;;
76608;SDS011;65928;53.936;27.540;2022-12-18T15:42:08;16.00;;;9.90;;
76608;SDS011;65928;53.936;27.540;2022-12-18T15:44:53;16.45;;;10.23;;
76608;SDS011;65928;53.936;27.540;2022-12-18T15:47:19;15.68;;;8.68;;
76608;SDS011;65928;53.936;27.540;2022-12-18T15:49:44;13.38;;;8.13;;
76608;SDS011;65928;53.936;27.540;2022-12-18T15:52:11;14.50;;;8.93;;
76608;SDS011;65928;53.936;27.540;2022-12-18T15:54:38;14.27;;;8.98;;
76608;SDS011;65928;53.936;27.540;2022-12-18T15:57:23;13.55;;;7.38;;
76608;SDS011;65928;53.936;27.540;2022-12-18T16:03:13;10.90;;;6.05;;
76608;SDS011;65928;53.936;27.540;2022-12-18T16:05:40;15.10;;;8.02;;
76608;SDS011;65928;53.936;27.540;2022-12-18T16:08:06;16.45;;;9.68;;
76608;SDS011;65928;53.936;27.540;2022-12-18T16:13:55;15.73;;;9.68;;
76608;SDS011;65928;53.936;27.540;2022-12-18T16:16:20;12.15;;;7.60;;
76608;SDS011;65928;53.936;27.540;2022-12-18T16:25:29;12.07;;;7.90;;
76608;SDS011;65928;53.936;27.540;2022-12-18T16:27:55;14.63;;;7.50;;
76608;SDS011;65928;53.936;27.540;2022-12-18T16:30:22;15.23;;;7.63;;
76608;SDS011;65928;53.936;27.540;2022-12-18T16:32:54;13.05;;;6.75;;
76608;SDS011;65928;53.936;27.540;2022-12-18T16:35:20;13.15;;;6.43;;
76608;SDS011;65928;53.936;27.540;2022-12-18T16:37:46;17.13;;;7.80;;
76608;SDS011;65928;53.936;27.540;2022-12-18T16:43:33;13.27;;;6.97;;
76608;SDS011;65928;53.936;27.540;2022-12-18T16:45:59;12.20;;;6.90;;
76608;SDS011;65928;53.936;27.540;2022-12-18T16:48:25;15.27;;;7.70;;
76608;SDS011;65928;53.936;27.540;2022-12-18T16:54:12;13.82;;;7.55;;
76608;SDS011;65928;53.936;27.540;2022-12-18T16:56:38;18.38;;;8.60;;
76608;SDS011;65928;53.936;27.540;2022-12-18T17:02:26;15.27;;;7.95;;
76608;SDS011;65928;53.936;27.540;2022-12-18T17:04:53;15.95;;;7.43;;
76608;SDS011;65928;53.936;27.540;2022-12-18T17:07:20;14.82;;;8.23;;
76608;SDS011;65928;53.936;27.540;2022-12-18T17:16:08;17.73;;;8.68;;
76608;SDS011;65928;53.936;27.540;2022-12-18T17:18:34;17.42;;;9.65;;
76608;SDS011;65928;53.936;27.540;2022-12-18T17:21:01;16.40;;;7.43;;
76608;SDS011;65928;53.936;27.540;2022-12-18T17:23:28;18.70;;;10.07;;
76608;SDS011;65928;53.936;27.540;2022-12-18T17:25:57;17.13;;;8.30;;
76608;SDS011;65928;53.936;27.540;2022-12-18T17:28:25;17.40;;;7.63;;
76608;SDS011;65928;53.936;27.540;2022-12-18T17:30:54;18.33;;;8.88;;
76608;SDS011;65928;53.936;27.540;2022-12-18T17:33:20;15.20;;;8.48;;
76608;SDS011;65928;53.936;27.540;2022-12-18T17:39:10;16.60;;;7.55;;
76608;SDS011;65928;53.936;27.540;2022-12-18T17:41:42;16.15;;;8.48;;
76608;SDS011;65928;53.936;27.540;2022-12-18T17:47:34;16.17;;;8.35;;
76608;SDS011;65928;53.936;27.540;2022-12-18T17:50:01;14.07;;;8.45;;
76608;SDS011;65928;53.936;27.540;2022-12-18T17:52:29;20.70;;;9.88;;
76608;SDS011;65928;53.936;27.540;2022-12-18T17:54:58;17.88;;;9.48;;
76608;SDS011;65928;53.936;27.540;2022-12-18T17:57:25;25.08;;;11.15;;
76608;SDS011;65928;53.936;27.540;2022-12-18T17:59:50;27.20;;;13.60;;
76608;SDS011;65928;53.936;27.540;2022-12-18T18:02:16;24.80;;;11.63;;
76608;SDS011;65928;53.936;27.540;2022-12-18T18:04:42;17.70;;;10.10;;
76608;SDS011;65928;53.936;27.540;2022-12-18T18:07:07;22.17;;;9.90;;
76608;SDS011;65928;53.936;27.540;2022-12-18T18:09:34;24.38;;;11.60;;
76608;SDS011;65928;53.936;27.540;2022-12-18T18:11:59;22.75;;;10.45;;